Vizconde de Eza — EAXB — position and weather

sailwx.info

Track history (hours):
 
Tides and Currents Weather Stations Pressure Air Temp Water Temp Dewpoint Dewpoint Depression Visibility Wind Speed Wind Dir Waves Ship Positions

Oceanographic research ship Vizconde de Eza (Spain)

Detailed information on ship capabilities available from University of Delaware's Ocean Information Center.

Last reported at 2014-Dec-07 12:33 UTC. Time now 2014-Dec-21 04:06 UTC.
Position N 39°12' W 009°47'.
Warning: this ship's position is 13 days out of date.

Length 53 m; draft 6.2 m.

Type: Other ship. MMSI: 224582000.

Date/timePositionNaut miles runAvg speedWind from/ knotsBaromVisibWave heightAir tempDewpointWater temp
2014-Dec-07 12:33N 39°12' W 009°47'9 9.5
2014-Dec-07 11:33N 39°02' W 009°49'9 9.3
2014-Dec-07 10:33N 38°53' W 009°51'10 9.6
2014-Dec-07 09:33N 38°44' W 009°51'9 9.2
2014-Dec-07 08:33N 38°35' W 009°49'9 9.0
2014-Dec-07 07:33N 38°26' W 009°46'11 9.5
2014-Dec-07 06:25N 38°15' W 009°43'9 9.8
2014-Dec-07 05:33N 38°07' W 009°41'10 9.7
2014-Dec-07 04:33N 37°57' W 009°38'227 9.5
2014-Dec-06 04:33N 35°58' W 005°36'9 8.8
2014-Dec-06 03:33N 36°00' W 005°26'10 9.7
2014-Dec-06 02:34N 36°02' W 005°14'22310.6
2014-Dec-05 05:33N 37°11' W 000°50'16711.1
2014-Dec-04 14:33N 38°52' E 001°58'1111.3
2014-Dec-04 13:33N 39°01' E 002°07'1111.2
2014-Dec-04 12:33N 39°10' E 002°16'1111.5
2014-Dec-04 11:33N 39°19' E 002°24'1111.3
2014-Dec-04 10:33N 39°27' E 002°34'7 6.3
2014-Dec-04 09:31N 39°33' E 002°38'0 0.0
2014-Dec-04 08:31N 39°33' E 002°38'0 0.4
2014-Dec-04 07:33N 39°33' E 002°39'7 7.2
2014-Dec-04 06:33N 39°27' E 002°34'8 7.8
2014-Dec-04 05:33N 39°21' E 002°27'8 7.9
2014-Dec-04 04:33N 39°15' E 002°21'9 8.9
2014-Dec-04 03:33N 39°08' E 002°14'1010.3
2014-Dec-04 02:33N 38°59' E 002°07'1010.2
2014-Dec-04 01:33N 38°51' E 001°59'1010.2
2014-Dec-04 00:33N 38°43' E 001°52'6 0.3
2014-Dec-03 02:20N 38°41' E 001°45'0 0.2
2014-Dec-02 23:20N 38°41' E 001°44'3 3.2
2014-Dec-02 22:25N 38°43' E 001°47'910.1
2014-Dec-02 21:33N 38°49' E 001°55'1010.3
2014-Dec-02 20:32N 38°57' E 002°03'1010.5
2014-Dec-02 19:33N 39°06' E 002°12'1110.5
2014-Dec-02 18:33N 39°14' E 002°20'1010.4
2014-Dec-02 17:33N 39°22' E 002°29'1110.8
2014-Dec-02 16:33N 39°30' E 002°38'3 3.2
2014-Dec-02 15:33N 39°33' E 002°38'0 0.0
2014-Dec-02 14:33N 39°33' E 002°38'0 0.0
2014-Dec-02 13:33N 39°33' E 002°38'0 0.0
2014-Dec-02 12:30N 39°33' E 002°38'0 0.0
2014-Dec-02 11:33N 39°33' E 002°38'0 0.0
2014-Dec-02 10:33N 39°33' E 002°38'0 0.0
2014-Dec-02 09:33N 39°33' E 002°38'0 0.0
2014-Dec-02 08:33N 39°33' E 002°38'0 0.0
2014-Dec-02 07:33N 39°33' E 002°38'0 0.0
2014-Dec-02 06:33N 39°33' E 002°38'0 0.0
2014-Dec-02 05:33N 39°33' E 002°38'0 0.0
2014-Dec-02 04:33N 39°33' E 002°38'0 0.0
2014-Dec-02 03:33N 39°33' E 002°38'0 0.0
2014-Dec-02 02:33N 39°33' E 002°38'0 0.0
2014-Dec-02 01:33N 39°33' E 002°38'0 0.0
2014-Dec-02 00:33N 39°33' E 002°38'0 0.0
2014-Dec-01 23:33N 39°33' E 002°38'0 0.0
2014-Dec-01 22:33N 39°33' E 002°38'0 0.0
2014-Dec-01 21:33N 39°33' E 002°38'0 0.0
2014-Dec-01 20:33N 39°33' E 002°38'0 0.0
2014-Dec-01 19:33N 39°33' E 002°38'0 0.0
2014-Dec-01 18:33N 39°33' E 002°38'0 0.0
2014-Dec-01 17:33N 39°33' E 002°38'0 0.0
2014-Dec-01 16:33N 39°33' E 002°38'0 0.0
2014-Dec-01 15:33N 39°33' E 002°38'0 0.0
2014-Dec-01 14:33N 39°33' E 002°38'0 0.0
2014-Dec-01 13:33N 39°33' E 002°38'0 0.0
2014-Dec-01 12:33N 39°33' E 002°38'0 0.0
2014-Dec-01 11:33N 39°33' E 002°38'0 0.0
2014-Dec-01 10:33N 39°33' E 002°38'0 0.0
2014-Dec-01 09:33N 39°33' E 002°38'0 0.0
2014-Dec-01 08:33N 39°33' E 002°38'0 0.0
2014-Dec-01 07:33N 39°33' E 002°38'0 0.0
2014-Dec-01 06:33N 39°33' E 002°38'0 0.0
2014-Dec-01 05:33N 39°33' E 002°38'0 0.0
2014-Dec-01 04:03N 39°33' E 002°38'0 0.0
2014-Dec-01 03:33N 39°33' E 002°38'0 0.0
2014-Dec-01 02:33N 39°33' E 002°38'0 0.0
2014-Dec-01 01:33N 39°33' E 002°38'0 0.0
2014-Dec-01 00:33N 39°33' E 002°38'0 0.0
2014-Nov-30 23:33N 39°33' E 002°38'0 0.0
2014-Nov-30 22:33N 39°33' E 002°38'0 0.0
2014-Nov-30 21:33N 39°33' E 002°38'0 0.0
2014-Nov-30 20:33N 39°33' E 002°38'0 0.0
2014-Nov-30 19:33N 39°33' E 002°38'0 0.0
2014-Nov-30 18:33N 39°33' E 002°38'0 0.0
2014-Nov-30 17:33N 39°33' E 002°38'0 0.0
2014-Nov-30 16:33N 39°33' E 002°38'0 0.0
2014-Nov-30 15:33N 39°33' E 002°38'0 0.0
2014-Nov-30 14:33N 39°33' E 002°38'0 0.0
2014-Nov-30 13:33N 39°33' E 002°38'0 0.0
2014-Nov-30 12:33N 39°33' E 002°38'0 0.0
2014-Nov-30 11:33N 39°33' E 002°38'0 0.0
2014-Nov-30 10:33N 39°33' E 002°38'0 0.0
2014-Nov-30 09:33N 39°33' E 002°38'0 0.0
2014-Nov-30 08:09N 39°33' E 002°38'0 0.0
2014-Nov-30 07:33N 39°33' E 002°38'0 0.0
2014-Nov-30 06:33N 39°33' E 002°38'0 0.0
2014-Nov-30 05:33N 39°33' E 002°38'0 0.0
2014-Nov-30 04:33N 39°33' E 002°38'0 0.0
2014-Nov-30 03:33N 39°33' E 002°38'0 0.0
2014-Nov-30 02:33N 39°33' E 002°38'0 0.0
2014-Nov-30 01:33N 39°33' E 002°38'0 0.0
2014-Nov-30 00:33N 39°33' E 002°38'0 0.0
2014-Nov-29 23:33N 39°33' E 002°38'0 0.0
2014-Nov-29 22:33N 39°33' E 002°38'0 0.0
2014-Nov-29 21:33N 39°33' E 002°38'0 0.0
2014-Nov-29 20:33N 39°33' E 002°38'0 0.0
2014-Nov-29 19:33N 39°33' E 002°38'0 0.0
2014-Nov-29 18:33N 39°33' E 002°38'0 0.0
2014-Nov-29 17:33N 39°33' E 002°38'0 0.0
2014-Nov-29 16:33N 39°33' E 002°38'0 0.0
2014-Nov-29 15:33N 39°33' E 002°38'0 0.0
2014-Nov-29 14:33N 39°33' E 002°38'0 0.0
2014-Nov-29 13:33N 39°33' E 002°38'0 0.0
2014-Nov-29 12:33N 39°33' E 002°38'0 0.0
2014-Nov-29 11:33N 39°33' E 002°38'0 0.0
2014-Nov-29 10:33N 39°33' E 002°38'0 0.0
2014-Nov-29 09:33N 39°33' E 002°38'0 0.0
2014-Nov-29 08:33N 39°33' E 002°38'0 0.0
2014-Nov-29 07:33N 39°33' E 002°38'0 0.0
2014-Nov-29 06:33N 39°33' E 002°38'0 0.0
2014-Nov-29 05:33N 39°33' E 002°38'0 0.0
2014-Nov-29 04:33N 39°33' E 002°38'0 0.0
2014-Nov-29 03:33N 39°33' E 002°38'0 0.0
2014-Nov-29 02:33N 39°33' E 002°38'0 0.0
2014-Nov-29 01:33N 39°33' E 002°38'0 0.0
2014-Nov-29 00:33N 39°33' E 002°38'0 0.0
2014-Nov-28 23:33N 39°33' E 002°38'0 0.0
2014-Nov-28 22:33N 39°33' E 002°38'0 0.0
2014-Nov-28 21:33N 39°33' E 002°38'0 0.0
2014-Nov-28 20:33N 39°33' E 002°38'0 0.0
2014-Nov-28 19:33N 39°33' E 002°38'0 0.0
2014-Nov-28 18:33N 39°33' E 002°38'0 0.0
2014-Nov-28 17:33N 39°33' E 002°38'0 0.0
2014-Nov-28 16:33N 39°33' E 002°38'0 0.0
2014-Nov-28 15:33N 39°33' E 002°38'0 0.0
2014-Nov-28 14:33N 39°33' E 002°38'0 0.0
2014-Nov-28 13:33N 39°33' E 002°38'0 0.0
2014-Nov-28 12:33N 39°33' E 002°38'0 0.0
2014-Nov-28 11:33N 39°33' E 002°38'0 0.0
2014-Nov-28 10:30N 39°33' E 002°38'0 0.0
2014-Nov-28 09:33N 39°33' E 002°38'6 5.0
2014-Nov-28 08:22N 39°28' E 002°35'911.0
2014-Nov-28 07:33N 39°21' E 002°27'1110.8
2014-Nov-28 06:33N 39°13' E 002°18'1110.9
2014-Nov-28 05:33N 39°04' E 002°10'1111.0
2014-Nov-28 04:33N 38°56' E 002°01'1111.1
2014-Nov-28 03:33N 38°47' E 001°52'9 2.2
2014-Nov-27 23:33N 38°39' E 001°49'11 5.6
2014-Nov-27 21:33N 38°33' E 001°37'5 4.3
2014-Nov-27 20:26N 38°29' E 001°40'3 1.4
2014-Nov-27 18:33N 38°26' E 001°42'5 4.5
2014-Nov-27 17:32N 38°30' E 001°46'0 0.5
2014-Nov-27 16:33N 38°30' E 001°46'5 4.8
2014-Nov-27 15:33N 38°35' E 001°46'2 1.6
2014-Nov-27 14:33N 38°37' E 001°46'2 2.1
2014-Nov-27 13:33N 38°35' E 001°44'  
Track history (hours):
 
Tides and Currents Weather Stations Pressure Air Temp Water Temp Dewpoint Dewpoint Depression Visibility Wind Speed Wind Dir Waves Ship Positions

Oceanographic research ship Vizconde de Eza (Spain)

Detailed information on ship capabilities available from University of Delaware's Ocean Information Center.

Last reported at 2014-Dec-07 12:33 UTC. Time now 2014-Dec-21 04:06 UTC.
Position N 39°12' W 009°47'.
Warning: this ship's position is 13 days out of date.

Length 53 m; draft 6.2 m.

Type: Other ship. MMSI: 224582000.

Date/timePositionNaut miles runAvg speedWind from/ knotsBaromVisibWave heightAir tempDewpointWater temp
2014-Dec-07 12:33N 39°12' W 009°47'9 9.5
2014-Dec-07 11:33N 39°02' W 009°49'9 9.3
2014-Dec-07 10:33N 38°53' W 009°51'10 9.6
2014-Dec-07 09:33N 38°44' W 009°51'9 9.2
2014-Dec-07 08:33N 38°35' W 009°49'9 9.0
2014-Dec-07 07:33N 38°26' W 009°46'11 9.5
2014-Dec-07 06:25N 38°15' W 009°43'9 9.8
2014-Dec-07 05:33N 38°07' W 009°41'10 9.7
2014-Dec-07 04:33N 37°57' W 009°38'227 9.5
2014-Dec-06 04:33N 35°58' W 005°36'9 8.8
2014-Dec-06 03:33N 36°00' W 005°26'10 9.7
2014-Dec-06 02:34N 36°02' W 005°14'22310.6
2014-Dec-05 05:33N 37°11' W 000°50'16711.1
2014-Dec-04 14:33N 38°52' E 001°58'1111.3
2014-Dec-04 13:33N 39°01' E 002°07'1111.2
2014-Dec-04 12:33N 39°10' E 002°16'1111.5
2014-Dec-04 11:33N 39°19' E 002°24'1111.3
2014-Dec-04 10:33N 39°27' E 002°34'7 6.3
2014-Dec-04 09:31N 39°33' E 002°38'0 0.0
2014-Dec-04 08:31N 39°33' E 002°38'0 0.4
2014-Dec-04 07:33N 39°33' E 002°39'7 7.2
2014-Dec-04 06:33N 39°27' E 002°34'8 7.8
2014-Dec-04 05:33N 39°21' E 002°27'8 7.9
2014-Dec-04 04:33N 39°15' E 002°21'9 8.9
2014-Dec-04 03:33N 39°08' E 002°14'1010.3
2014-Dec-04 02:33N 38°59' E 002°07'1010.2
2014-Dec-04 01:33N 38°51' E 001°59'1010.2
2014-Dec-04 00:33N 38°43' E 001°52'6 0.3
2014-Dec-03 02:20N 38°41' E 001°45'0 0.2
2014-Dec-02 23:20N 38°41' E 001°44'3 3.2
2014-Dec-02 22:25N 38°43' E 001°47'910.1
2014-Dec-02 21:33N 38°49' E 001°55'1010.3
2014-Dec-02 20:32N 38°57' E 002°03'1010.5
2014-Dec-02 19:33N 39°06' E 002°12'1110.5
2014-Dec-02 18:33N 39°14' E 002°20'1010.4
2014-Dec-02 17:33N 39°22' E 002°29'1110.8
2014-Dec-02 16:33N 39°30' E 002°38'3 3.2
2014-Dec-02 15:33N 39°33' E 002°38'0 0.0
2014-Dec-02 14:33N 39°33' E 002°38'0 0.0
2014-Dec-02 13:33N 39°33' E 002°38'0 0.0
2014-Dec-02 12:30N 39°33' E 002°38'0 0.0
2014-Dec-02 11:33N 39°33' E 002°38'0 0.0
2014-Dec-02 10:33N 39°33' E 002°38'0 0.0
2014-Dec-02 09:33N 39°33' E 002°38'0 0.0
2014-Dec-02 08:33N 39°33' E 002°38'0 0.0
2014-Dec-02 07:33N 39°33' E 002°38'0 0.0
2014-Dec-02 06:33N 39°33' E 002°38'0 0.0
2014-Dec-02 05:33N 39°33' E 002°38'0 0.0
2014-Dec-02 04:33N 39°33' E 002°38'0 0.0
2014-Dec-02 03:33N 39°33' E 002°38'0 0.0
2014-Dec-02 02:33N 39°33' E 002°38'0 0.0
2014-Dec-02 01:33N 39°33' E 002°38'0 0.0
2014-Dec-02 00:33N 39°33' E 002°38'0 0.0
2014-Dec-01 23:33N 39°33' E 002°38'0 0.0
2014-Dec-01 22:33N 39°33' E 002°38'0 0.0
2014-Dec-01 21:33N 39°33' E 002°38'0 0.0
2014-Dec-01 20:33N 39°33' E 002°38'0 0.0
2014-Dec-01 19:33N 39°33' E 002°38'0 0.0
2014-Dec-01 18:33N 39°33' E 002°38'0 0.0
2014-Dec-01 17:33N 39°33' E 002°38'0 0.0
2014-Dec-01 16:33N 39°33' E 002°38'0 0.0
2014-Dec-01 15:33N 39°33' E 002°38'0 0.0
2014-Dec-01 14:33N 39°33' E 002°38'0 0.0
2014-Dec-01 13:33N 39°33' E 002°38'0 0.0
2014-Dec-01 12:33N 39°33' E 002°38'0 0.0
2014-Dec-01 11:33N 39°33' E 002°38'0 0.0
2014-Dec-01 10:33N 39°33' E 002°38'0 0.0
2014-Dec-01 09:33N 39°33' E 002°38'0 0.0
2014-Dec-01 08:33N 39°33' E 002°38'0 0.0
2014-Dec-01 07:33N 39°33' E 002°38'0 0.0
2014-Dec-01 06:33N 39°33' E 002°38'0 0.0
2014-Dec-01 05:33N 39°33' E 002°38'0 0.0
2014-Dec-01 04:03N 39°33' E 002°38'0 0.0
2014-Dec-01 03:33N 39°33' E 002°38'0 0.0
2014-Dec-01 02:33N 39°33' E 002°38'0 0.0
2014-Dec-01 01:33N 39°33' E 002°38'0 0.0
2014-Dec-01 00:33N 39°33' E 002°38'0 0.0
2014-Nov-30 23:33N 39°33' E 002°38'0 0.0
2014-Nov-30 22:33N 39°33' E 002°38'0 0.0
2014-Nov-30 21:33N 39°33' E 002°38'0 0.0
2014-Nov-30 20:33N 39°33' E 002°38'0 0.0
2014-Nov-30 19:33N 39°33' E 002°38'0 0.0
2014-Nov-30 18:33N 39°33' E 002°38'0 0.0
2014-Nov-30 17:33N 39°33' E 002°38'0 0.0
2014-Nov-30 16:33N 39°33' E 002°38'0 0.0
2014-Nov-30 15:33N 39°33' E 002°38'0 0.0
2014-Nov-30 14:33N 39°33' E 002°38'0 0.0
2014-Nov-30 13:33N 39°33' E 002°38'0 0.0
2014-Nov-30 12:33N 39°33' E 002°38'0 0.0
2014-Nov-30 11:33N 39°33' E 002°38'0 0.0
2014-Nov-30 10:33N 39°33' E 002°38'0 0.0
2014-Nov-30 09:33N 39°33' E 002°38'0 0.0
2014-Nov-30 08:09N 39°33' E 002°38'0 0.0
2014-Nov-30 07:33N 39°33' E 002°38'0 0.0
2014-Nov-30 06:33N 39°33' E 002°38'0 0.0
2014-Nov-30 05:33N 39°33' E 002°38'0 0.0
2014-Nov-30 04:33N 39°33' E 002°38'0 0.0
2014-Nov-30 03:33N 39°33' E 002°38'0 0.0
2014-Nov-30 02:33N 39°33' E 002°38'0 0.0
2014-Nov-30 01:33N 39°33' E 002°38'0 0.0
2014-Nov-30 00:33N 39°33' E 002°38'0 0.0
2014-Nov-29 23:33N 39°33' E 002°38'0 0.0
2014-Nov-29 22:33N 39°33' E 002°38'0 0.0
2014-Nov-29 21:33N 39°33' E 002°38'0 0.0
2014-Nov-29 20:33N 39°33' E 002°38'0 0.0
2014-Nov-29 19:33N 39°33' E 002°38'0 0.0
2014-Nov-29 18:33N 39°33' E 002°38'0 0.0
2014-Nov-29 17:33N 39°33' E 002°38'0 0.0
2014-Nov-29 16:33N 39°33' E 002°38'0 0.0
2014-Nov-29 15:33N 39°33' E 002°38'0 0.0
2014-Nov-29 14:33N 39°33' E 002°38'0 0.0
2014-Nov-29 13:33N 39°33' E 002°38'0 0.0
2014-Nov-29 12:33N 39°33' E 002°38'0 0.0
2014-Nov-29 11:33N 39°33' E 002°38'0 0.0
2014-Nov-29 10:33N 39°33' E 002°38'0 0.0
2014-Nov-29 09:33N 39°33' E 002°38'0 0.0
2014-Nov-29 08:33N 39°33' E 002°38'0 0.0
2014-Nov-29 07:33N 39°33' E 002°38'0 0.0
2014-Nov-29 06:33N 39°33' E 002°38'0 0.0
2014-Nov-29 05:33N 39°33' E 002°38'0 0.0
2014-Nov-29 04:33N 39°33' E 002°38'0 0.0
2014-Nov-29 03:33N 39°33' E 002°38'0 0.0
2014-Nov-29 02:33N 39°33' E 002°38'0 0.0
2014-Nov-29 01:33N 39°33' E 002°38'0 0.0
2014-Nov-29 00:33N 39°33' E 002°38'0 0.0
2014-Nov-28 23:33N 39°33' E 002°38'0 0.0
2014-Nov-28 22:33N 39°33' E 002°38'0 0.0
2014-Nov-28 21:33N 39°33' E 002°38'0 0.0
2014-Nov-28 20:33N 39°33' E 002°38'0 0.0
2014-Nov-28 19:33N 39°33' E 002°38'0 0.0
2014-Nov-28 18:33N 39°33' E 002°38'0 0.0
2014-Nov-28 17:33N 39°33' E 002°38'0 0.0
2014-Nov-28 16:33N 39°33' E 002°38'0 0.0
2014-Nov-28 15:33N 39°33' E 002°38'0 0.0
2014-Nov-28 14:33N 39°33' E 002°38'0 0.0
2014-Nov-28 13:33N 39°33' E 002°38'0 0.0
2014-Nov-28 12:33N 39°33' E 002°38'0 0.0
2014-Nov-28 11:33N 39°33' E 002°38'0 0.0
2014-Nov-28 10:30N 39°33' E 002°38'0 0.0
2014-Nov-28 09:33N 39°33' E 002°38'6 5.0
2014-Nov-28 08:22N 39°28' E 002°35'911.0
2014-Nov-28 07:33N 39°21' E 002°27'1110.8
2014-Nov-28 06:33N 39°13' E 002°18'1110.9
2014-Nov-28 05:33N 39°04' E 002°10'1111.0
2014-Nov-28 04:33N 38°56' E 002°01'1111.1
2014-Nov-28 03:33N 38°47' E 001°52'9 2.2
2014-Nov-27 23:33N 38°39' E 001°49'11 5.6
2014-Nov-27 21:33N 38°33' E 001°37'5 4.3
2014-Nov-27 20:26N 38°29' E 001°40'3 1.4
2014-Nov-27 18:33N 38°26' E 001°42'5 4.5
2014-Nov-27 17:32N 38°30' E 001°46'0 0.5
2014-Nov-27 16:33N 38°30' E 001°46'5 4.8
2014-Nov-27 15:33N 38°35' E 001°46'2 1.6
2014-Nov-27 14:33N 38°37' E 001°46'2 2.1
2014-Nov-27 13:33N 38°35' E 001°44'  

Dump ship's entire track history